Time;durP1;ratioP1;P1;durP2;ratioP2;P2;SDS_P1;SDS_P2;PMS_P1;PMS_P2;Temp;Humidity;BMP_temperature;BMP_pressure;BME280_temperature;BME280_humidity;BME280_pressure;Samples;Min_cycle;Max_cycle;Signal;HPM_P1;HPM_P2
2021/05/25 00:01:53;;;;;;;6.03;3.25;;;;;;;7.76;87.62;100996.53;4977720;28;20093;-73
2021/05/25 00:04:21;;;;;;;7.38;3.42;;;;;;;7.78;88.00;100998.28;4974963;28;20058;-73
2021/05/25 00:06:48;;;;;;;6.70;3.40;;;;;;;7.75;88.35;101001.00;4977426;28;20117;-73
2021/05/25 00:09:16;;;;;;;6.97;3.10;;;;;;;7.74;87.58;100996.56;4973651;28;20206;-73
2021/05/25 00:11:43;;;;;;;8.57;3.15;;;;;;;7.77;87.79;100993.88;4978552;28;20059;-73
2021/05/25 00:14:10;;;;;;;9.00;3.20;;;;;;;7.77;87.93;100998.31;4973388;28;20104;-73
2021/05/25 00:16:38;;;;;;;6.00;3.15;;;;;;;7.74;87.98;101004.53;4977174;28;20073;-73
2021/05/25 00:19:06;;;;;;;7.82;3.22;;;;;;;7.74;87.87;100998.34;4972521;28;20070;-73
2021/05/25 00:21:33;;;;;;;7.28;3.97;;;;;;;7.77;88.64;100999.19;4978383;28;20066;-73
2021/05/25 00:24:01;;;;;;;7.15;3.45;;;;;;;7.73;87.51;100991.28;4980099;28;20058;-73
2021/05/25 00:26:28;;;;;;;9.35;3.40;;;;;;;7.72;88.28;100994.88;4974181;28;20401;-73
2021/05/25 00:28:56;;;;;;;6.97;3.08;;;;;;;7.66;87.95;100988.75;4976925;28;20460;-73
2021/05/25 00:31:23;;;;;;;6.63;3.20;;;;;;;7.64;88.00;100992.31;4975786;28;20058;-73
2021/05/25 00:33:51;;;;;;;12.00;3.67;;;;;;;7.63;88.20;100998.56;4973891;28;20134;-72
2021/05/25 00:36:21;;;;;;;10.38;3.72;;;;;;;7.63;88.87;100991.47;4976004;28;20352;-73
2021/05/25 00:38:48;;;;;;;9.35;4.00;;;;;;;7.60;88.95;100991.50;4972148;28;20442;-73
2021/05/25 00:41:16;;;;;;;12.10;4.35;;;;;;;7.58;89.18;100992.44;4976441;28;20089;-73
2021/05/25 00:43:43;;;;;;;9.65;5.35;;;;;;;7.56;89.38;100995.13;4971783;28;20054;-72
2021/05/25 00:46:10;;;;;;;11.02;5.15;;;;;;;7.52;89.64;100989.88;4975592;28;20062;-73
2021/05/25 00:48:38;;;;;;;14.40;6.20;;;;;;;7.52;89.77;100990.75;4971511;28;20150;-72
2021/05/25 00:51:05;;;;;;;11.57;6.05;;;;;;;7.49;89.80;100993.44;4977281;28;22005;-72
2021/05/25 00:53:33;;;;;;;9.65;5.53;;;;;;;7.50;89.74;100999.66;4973384;28;20408;-72
2021/05/25 00:56:01;;;;;;;11.07;5.72;;;;;;;7.45;89.78;100995.28;4977362;28;20057;-71
2021/05/25 00:58:29;;;;;;;15.68;5.78;;;;;;;7.44;90.44;100998.88;4974551;28;20064;-73
2021/05/25 01:00:56;;;;;;;12.60;5.78;;;;;;;7.41;90.08;100998.91;4976394;28;20066;-72
2021/05/25 01:03:24;;;;;;;14.18;6.22;;;;;;;7.38;90.21;100996.28;4968149;28;20062;-72
2021/05/25 01:05:52;;;;;;;13.45;6.05;;;;;;;7.40;90.62;100999.78;4979514;28;20058;-73
2021/05/25 01:08:19;;;;;;;15.23;7.55;;;;;;;7.36;91.28;100994.59;4972834;28;20540;-74
2021/05/25 01:10:50;;;;;;;13.15;6.43;;;;;;;7.33;91.15;100990.19;4977295;28;20073;-73
2021/05/25 01:13:20;;;;;;;14.23;7.40;;;;;;;7.35;91.20;100996.34;4971947;28;20449;-72
2021/05/25 01:15:48;;;;;;;15.90;6.65;;;;;;;7.38;91.15;100998.09;4975236;28;20511;-73
2021/05/25 01:18:17;;;;;;;14.70;6.68;;;;;;;7.37;91.24;100994.56;4975012;28;20086;-72
2021/05/25 01:20:46;;;;;;;17.17;8.25;;;;;;;7.37;91.77;100991.91;4975253;28;20062;-72
2021/05/25 01:23:15;;;;;;;14.60;6.95;;;;;;;7.34;91.41;100991.06;4973047;28;20129;-73
2021/05/25 01:25:45;;;;;;;14.93;7.88;;;;;;;7.31;91.26;100992.00;4975351;28;20068;-72
2021/05/25 01:28:15;;;;;;;14.68;7.32;;;;;;;7.29;91.55;100997.31;4974518;28;20385;-73
2021/05/25 01:30:46;;;;;;;20.58;7.28;;;;;;;7.27;91.65;101003.53;4972272;28;20066;-71
2021/05/25 01:33:14;;;;;;;14.40;7.07;;;;;;;7.27;91.69;100998.25;4973465;28;20066;-72
2021/05/25 01:35:42;;;;;;;12.98;6.50;;;;;;;7.23;92.01;101001.84;4973282;28;20142;-72
2021/05/25 01:38:12;;;;;;;15.45;7.78;;;;;;;7.18;91.95;101009.00;4970747;28;20476;-73
2021/05/25 01:40:40;;;;;;;13.18;6.60;;;;;;;7.14;91.77;100999.34;4969803;28;20070;-73
2021/05/25 01:43:08;;;;;;;15.35;7.40;;;;;;;7.16;91.44;101005.50;4975828;28;20177;-73
2021/05/25 01:45:37;;;;;;;16.67;6.82;;;;;;;7.14;91.56;101005.53;4973314;28;20061;-72
2021/05/25 01:48:08;;;;;;;14.70;7.20;;;;;;;7.14;91.82;101013.50;4973123;28;20121;-73
2021/05/25 01:50:37;;;;;;;14.38;5.85;;;;;;;7.10;91.39;101012.66;4974298;28;20405;-71
2021/05/25 01:53:07;;;;;;;13.82;7.00;;;;;;;7.09;91.38;101012.69;4972828;28;20068;-72
2021/05/25 01:55:39;;;;;;;14.57;6.32;;;;;;;7.08;91.57;101013.56;4975888;28;20153;-71
2021/05/25 01:58:11;;;;;;;14.35;6.80;;;;;;;7.07;92.37;101010.06;4974365;28;20553;-73
2021/05/25 02:00:41;;;;;;;19.42;7.68;;;;;;;7.06;91.89;101015.38;4974382;28;20082;-73
2021/05/25 02:03:08;;;;;;;13.05;5.97;;;;;;;7.04;91.55;101019.84;4973407;28;20105;-73
2021/05/25 02:05:38;;;;;;;16.38;6.70;;;;;;;7.02;91.62;101011.91;4972998;28;20449;-72
2021/05/25 02:08:08;;;;;;;12.07;5.50;;;;;;;7.01;91.96;101018.09;4971597;28;20265;-72
2021/05/25 02:10:37;;;;;;;13.80;6.47;;;;;;;6.98;91.66;101009.31;4975484;28;20253;-71
2021/05/25 02:13:08;;;;;;;16.33;6.93;;;;;;;6.94;91.96;101020.88;4971934;28;20070;-72
2021/05/25 02:15:36;;;;;;;13.50;5.95;;;;;;;6.97;91.49;101016.41;4975476;28;20058;-71
2021/05/25 02:18:05;;;;;;;14.48;6.38;;;;;;;6.90;91.77;101020.03;4971825;28;20062;-72
2021/05/25 02:20:32;;;;;;;15.90;6.60;;;;;;;6.86;91.68;101018.31;4979404;28;20515;-71
2021/05/25 02:22:59;;;;;;;12.27;5.85;;;;;;;6.83;92.26;101013.06;4972061;28;20054;-71
2021/05/25 02:25:27;;;;;;;15.23;7.55;;;;;;;6.85;91.63;101017.44;4977070;28;20064;-71
2021/05/25 02:27:54;;;;;;;14.68;6.00;;;;;;;6.82;91.85;101016.59;4970059;28;20463;-72
2021/05/25 02:30:23;;;;;;;16.42;6.20;;;;;;;6.83;91.96;101027.19;4978878;28;20449;-72
2021/05/25 02:32:50;;;;;;;15.65;6.68;;;;;;;6.76;91.72;101024.63;4970549;28;20058;-72
2021/05/25 02:35:17;;;;;;;15.13;6.70;;;;;;;6.77;92.11;101029.06;4977687;28;20063;-72
2021/05/25 02:37:45;;;;;;;14.77;5.97;;;;;;;6.76;91.77;101029.94;4969980;28;20062;-73
2021/05/25 02:40:13;;;;;;;20.30;7.35;;;;;;;6.76;91.84;101024.63;4981901;28;20096;-72
2021/05/25 02:42:40;;;;;;;18.38;7.18;;;;;;;6.74;91.80;101027.31;4973689;28;20066;-72
2021/05/25 02:45:09;;;;;;;15.02;6.53;;;;;;;6.73;92.13;101029.09;4979266;28;20321;-72
2021/05/25 02:47:37;;;;;;;16.85;6.60;;;;;;;6.73;91.97;101033.53;4974625;28;20165;-71
2021/05/25 02:50:07;;;;;;;13.40;6.00;;;;;;;6.71;91.86;101032.69;4976782;28;20066;-72
2021/05/25 02:52:36;;;;;;;18.15;7.43;;;;;;;6.71;92.16;101033.53;4976137;28;20066;-72
2021/05/25 02:55:05;;;;;;;15.05;7.13;;;;;;;6.71;92.30;101035.34;4977657;28;20427;-73
2021/05/25 02:57:32;;;;;;;19.83;8.15;;;;;;;6.69;92.37;101031.78;4977109;28;20259;-71
2021/05/25 03:00:00;;;;;;;17.92;7.07;;;;;;;6.67;92.16;101038.91;4978333;28;20066;-72
2021/05/25 03:02:28;;;;;;;15.68;6.82;;;;;;;6.66;92.63;101040.69;4974748;28;20116;-72
2021/05/25 03:04:56;;;;;;;18.20;7.68;;;;;;;6.64;92.58;101045.13;4974944;28;20511;-72
2021/05/25 03:07:23;;;;;;;17.80;6.60;;;;;;;6.69;92.64;101051.25;4977325;28;20329;-73
2021/05/25 03:09:50;;;;;;;17.70;7.43;;;;;;;6.70;92.35;101055.66;4977274;28;20257;-71
2021/05/25 03:12:18;;;;;;;15.50;7.43;;;;;;;6.77;92.54;101059.09;4975984;28;20090;-71
2021/05/25 03:14:46;;;;;;;16.88;7.47;;;;;;;6.82;92.71;101056.41;4981234;28;20090;-71
2021/05/25 03:17:13;;;;;;;17.33;7.90;;;;;;;6.83;93.03;101060.81;4975536;28;20101;-72
2021/05/25 03:19:41;;;;;;;19.92;8.15;;;;;;;6.84;92.59;101063.41;4976089;28;20246;-73
2021/05/25 03:22:09;;;;;;;17.95;6.90;;;;;;;6.87;92.93;101071.34;4975128;28;20118;-73
2021/05/25 03:24:36;;;;;;;17.02;7.78;;;;;;;6.91;92.94;101069.53;4980828;28;20445;-72
2021/05/25 03:27:03;;;;;;;18.45;9.13;;;;;;;6.91;92.51;101058.91;4978752;28;20069;-72
2021/05/25 03:29:31;;;;;;;17.15;8.55;;;;;;;6.92;92.27;101060.69;4972988;28;20091;-74
2021/05/25 03:31:58;;;;;;;17.13;8.23;;;;;;;6.89;92.70;101058.94;4976445;28;20058;-72
2021/05/25 03:34:26;;;;;;;18.25;9.38;;;;;;;6.88;92.53;101058.97;4973071;28;20056;-72
2021/05/25 03:36:54;;;;;;;17.60;8.35;;;;;;;6.85;92.24;101070.50;4978846;28;20241;-72
2021/05/25 03:39:22;;;;;;;16.55;8.23;;;;;;;6.83;92.46;101071.44;4978721;28;20173;-72
2021/05/25 03:41:49;;;;;;;16.95;7.85;;;;;;;6.80;92.83;101067.03;4975560;28;20066;-72
2021/05/25 03:44:17;;;;;;;21.20;8.85;;;;;;;6.82;92.50;101078.47;4977797;28;21850;-73
2021/05/25 03:46:44;;;;;;;24.63;9.50;;;;;;;6.85;92.53;101074.94;4979231;28;20062;-72
2021/05/25 03:49:11;;;;;;;20.15;9.75;;;;;;;6.86;92.51;101079.31;4973116;28;20069;-72
2021/05/25 03:51:39;;;;;;;20.20;9.75;;;;;;;6.84;92.53;101078.47;4977326;28;20061;-71
2021/05/25 03:54:09;;;;;;;19.25;9.30;;;;;;;6.84;92.83;101074.03;4977199;28;20088;-73
2021/05/25 03:56:48;;;;;;;21.73;10.43;;;;;;;6.85;92.79;101077.59;4974666;28;20063;-73
2021/05/25 03:59:15;;;;;;;22.17;9.93;;;;;;;6.85;92.97;101074.94;4977615;28;20067;-72
2021/05/25 04:01:42;;;;;;;18.20;9.43;;;;;;;6.84;93.01;101079.34;4972762;28;20077;-72
2021/05/25 04:04:10;;;;;;;18.80;9.43;;;;;;;6.90;92.89;101079.28;4980097;28;20065;-72
2021/05/25 04:06:38;;;;;;;21.08;11.32;;;;;;;6.95;92.93;101073.91;4976056;28;20881;-72
2021/05/25 04:09:06;;;;;;;20.15;10.15;;;;;;;7.01;92.88;101079.13;4977312;28;20180;-71
2021/05/25 04:11:34;;;;;;;23.13;11.52;;;;;;;7.07;92.83;101078.19;4973839;28;20066;-72
2021/05/25 04:14:03;;;;;;;23.70;11.20;;;;;;;7.12;92.69;101073.69;4981490;28;20058;-72
2021/05/25 04:16:31;;;;;;;21.25;10.98;;;;;;;7.13;92.80;101078.06;4973241;28;20377;-72
2021/05/25 04:18:58;;;;;;;21.95;10.85;;;;;;;7.18;92.73;101076.22;4978249;28;20055;-72
2021/05/25 04:21:26;;;;;;;19.88;11.20;;;;;;;7.28;92.59;101076.97;4969865;28;20062;-72
2021/05/25 04:23:53;;;;;;;24.88;10.55;;;;;;;7.43;92.19;101078.53;4979265;28;20116;-73
2021/05/25 04:26:20;;;;;;;23.00;11.13;;;;;;;7.56;92.46;101080.09;4973620;28;20462;-71
2021/05/25 04:28:48;;;;;;;33.92;16.02;;;;;;;7.64;92.82;101085.28;4980362;28;20065;-73
2021/05/25 04:31:16;;;;;;;17.25;9.00;;;;;;;7.69;92.53;101087.88;4974076;28;20058;-72
2021/05/25 04:33:43;;;;;;;18.52;10.75;;;;;;;7.70;92.83;101081.66;4979735;28;20092;-72
2021/05/25 04:36:11;;;;;;;17.60;9.45;;;;;;;7.69;92.59;101085.22;4973523;28;20453;-73
2021/05/25 04:38:38;;;;;;;17.13;9.18;;;;;;;7.67;92.63;101096.72;4980339;28;20145;-73
2021/05/25 04:41:05;;;;;;;17.92;8.50;;;;;;;7.66;92.65;101100.31;4972817;28;20133;-72
2021/05/25 04:43:32;;;;;;;17.42;8.85;;;;;;;7.67;92.62;101101.16;4974913;28;20068;-72
2021/05/25 04:46:00;;;;;;;15.63;8.75;;;;;;;7.69;92.82;101103.81;4971667;28;20477;-71
2021/05/25 04:48:28;;;;;;;16.42;8.13;;;;;;;7.69;92.41;101101.16;4976191;28;20225;-73
2021/05/25 04:51:00;;;;;;;15.82;8.40;;;;;;;7.67;92.05;101096.72;4973239;28;20054;-72
2021/05/25 04:53:27;;;;;;;15.70;8.23;;;;;;;7.71;92.38;101099.34;4975614;28;20066;-71
2021/05/25 04:55:55;;;;;;;15.63;7.47;;;;;;;7.71;92.03;101105.53;4974791;28;20073;-72
2021/05/25 04:58:22;;;;;;;15.50;8.30;;;;;;;7.69;92.25;101107.34;4976129;28;20063;-72
2021/05/25 05:00:49;;;;;;;14.35;6.70;;;;;;;7.71;92.10;101104.66;4975631;28;20639;-71
2021/05/25 05:03:17;;;;;;;15.63;8.25;;;;;;;7.72;92.16;101109.94;4974777;28;20062;-70
2021/05/25 05:05:45;;;;;;;18.05;8.25;;;;;;;7.84;91.86;101107.09;4976393;28;20069;-71
2021/05/25 05:08:12;;;;;;;25.90;8.40;;;;;;;7.93;91.64;101100.72;4975530;28;20458;-71
2021/05/25 05:10:40;;;;;;;15.30;7.68;;;;;;;8.36;91.37;101109.72;4973316;28;20106;-71
2021/05/25 05:13:08;;;;;;;14.45;8.02;;;;;;;8.31;90.42;101107.19;4973760;28;20088;-71
2021/05/25 05:15:36;;;;;;;13.30;8.32;;;;;;;8.20;90.31;101104.69;4975494;28;20062;-71
2021/05/25 05:18:04;;;;;;;15.32;7.35;;;;;;;8.19;90.13;101115.38;4977163;28;20062;-72
2021/05/25 05:20:32;;;;;;;14.50;7.25;;;;;;;8.41;90.25;101121.16;4974591;28;20089;-71
2021/05/25 05:23:00;;;;;;;14.15;7.68;;;;;;;8.65;89.39;101122.53;4976454;28;20380;-71
2021/05/25 05:25:27;;;;;;;13.27;7.10;;;;;;;9.08;87.37;101118.09;4975855;28;20065;-70
2021/05/25 05:27:55;;;;;;;13.32;7.43;;;;;;;9.27;86.50;101107.94;4976494;28;20062;-70
2021/05/25 05:30:22;;;;;;;11.85;6.68;;;;;;;9.98;85.83;101114.25;4971874;28;20062;-71
2021/05/25 05:32:49;;;;;;;11.50;6.78;;;;;;;9.72;85.89;101121.97;4974935;28;20878;-71
2021/05/25 05:35:17;;;;;;;15.50;7.35;;;;;;;9.52;85.55;101116.25;4973846;28;20467;-70
2021/05/25 05:37:44;;;;;;;13.57;6.32;;;;;;;9.45;85.87;101122.59;4974695;28;20066;-70
2021/05/25 05:40:15;;;;;;;12.40;7.25;;;;;;;9.27;86.51;101124.78;4973153;28;20710;-70
2021/05/25 05:43:02;;;;;;;14.23;7.40;;;;;;;9.22;86.65;101131.97;4974896;28;20114;-69
2021/05/25 05:45:30;;;;;;;14.75;7.15;;;;;;;9.14;86.81;101142.81;4975198;28;20388;-69
2021/05/25 05:47:57;;;;;;;12.38;6.90;;;;;;;9.19;87.29;101136.50;4972594;28;20153;-69
2021/05/25 05:50:24;;;;;;;13.50;7.10;;;;;;;9.17;87.50;101136.53;4972272;28;20527;-70
2021/05/25 05:52:52;;;;;;;13.82;7.45;;;;;;;9.19;87.63;101144.50;4971982;28;20063;-70
2021/05/25 05:55:20;;;;;;;15.93;7.60;;;;;;;9.26;87.66;101147.00;4977960;28;20145;-69
2021/05/25 05:57:47;;;;;;;14.80;7.30;;;;;;;9.29;87.88;101146.03;4968764;28;20054;-69
2021/05/25 06:00:16;;;;;;;16.75;7.10;;;;;;;9.36;87.98;101155.66;4973377;28;20066;-69
2021/05/25 06:02:44;;;;;;;15.40;7.28;;;;;;;9.46;87.92;101161.66;4971206;28;20066;-69
2021/05/25 06:05:12;;;;;;;11.95;7.00;;;;;;;9.49;88.12;101156.25;4974372;28;20401;-69
2021/05/25 06:07:40;;;;;;;14.00;7.13;;;;;;;9.46;87.69;101161.66;4970136;28;20398;-69
2021/05/25 06:10:08;;;;;;;12.10;6.82;;;;;;;9.49;88.57;101166.91;4976811;28;20146;-69
2021/05/25 06:12:36;;;;;;;17.67;7.40;;;;;;;9.62;87.69;101167.50;4971739;28;20066;-69
2021/05/25 06:15:05;;;;;;;14.45;6.63;;;;;;;9.59;87.85;101165.81;4976972;28;20073;-69
2021/05/25 06:17:33;;;;;;;12.07;6.20;;;;;;;9.66;87.82;101170.06;4973906;28;20441;-69
2021/05/25 06:20:00;;;;;;;11.00;5.78;;;;;;;9.95;87.01;101162.31;4980280;28;20059;-69
2021/05/25 06:22:27;;;;;;;14.55;6.90;;;;;;;10.37;85.52;101171.06;4976071;28;20090;-69
2021/05/25 06:24:54;;;;;;;15.27;6.28;;;;;;;10.92;84.06;101174.00;4979843;28;20177;-69
2021/05/25 06:27:22;;;;;;;12.13;5.97;;;;;;;11.18;82.25;101183.06;4976995;28;20060;-70
2021/05/25 06:29:50;;;;;;;13.07;5.38;;;;;;;11.09;81.30;101172.66;4976273;28;20992;-70
2021/05/25 06:32:17;;;;;;;14.50;5.10;;;;;;;11.09;81.32;101178.88;4976939;28;20065;-70
2021/05/25 06:34:44;;;;;;;13.40;5.20;;;;;;;11.18;81.01;101189.28;4973761;28;20063;-71
2021/05/25 06:37:11;;;;;;;10.82;5.15;;;;;;;11.31;82.64;101186.28;4974525;28;21092;-70
2021/05/25 06:39:39;;;;;;;11.75;4.60;;;;;;;11.08;81.68;101190.47;4971450;28;20162;-71
2021/05/25 06:42:07;;;;;;;12.65;4.60;;;;;;;10.67;81.84;101184.47;4974711;28;20078;-71
2021/05/25 06:44:35;;;;;;;12.13;4.80;;;;;;;10.63;82.79;101189.03;4974602;28;20062;-71
2021/05/25 06:47:03;;;;;;;20.33;5.38;;;;;;;10.54;82.79;101191.97;4973838;28;20489;-71
2021/05/25 06:49:30;;;;;;;10.65;4.90;;;;;;;10.54;81.64;101191.97;4971691;28;20046;-71
2021/05/25 06:51:57;;;;;;;18.27;5.45;;;;;;;10.42;82.93;101210.94;4974668;28;20054;-71
2021/05/25 06:54:25;;;;;;;16.17;4.65;;;;;;;10.26;83.04;101205.09;4974499;28;20062;-71
2021/05/25 06:56:52;;;;;;;11.95;4.47;;;;;;;10.23;83.36;101207.81;4973659;28;20058;-72
2021/05/25 06:59:20;;;;;;;11.20;4.10;;;;;;;10.27;82.62;101207.72;4974767;28;20061;-71
2021/05/25 07:01:47;;;;;;;17.80;4.50;;;;;;;10.20;82.50;101208.78;4975839;28;20271;-71
2021/05/25 07:04:15;;;;;;;9.25;4.20;;;;;;;10.34;82.88;101215.59;4973033;28;20093;-71
2021/05/25 07:06:42;;;;;;;14.02;4.57;;;;;;;10.38;82.35;101220.81;4976684;28;20054;-72
2021/05/25 07:09:09;;;;;;;10.40;3.85;;;;;;;10.40;82.59;101227.00;4976202;28;20062;-72
2021/05/25 07:11:37;;;;;;;10.70;3.67;;;;;;;10.41;83.18;101234.06;4976642;28;20320;-72
2021/05/25 07:14:04;;;;;;;10.38;3.65;;;;;;;10.49;82.53;101236.56;4980725;28;20384;-73
2021/05/25 07:16:32;;;;;;;9.85;4.40;;;;;;;10.40;83.22;101242.09;4974118;28;20067;-72
2021/05/25 07:18:59;;;;;;;8.90;4.28;;;;;;;10.41;83.02;101247.41;4976044;28;20381;-72
2021/05/25 07:21:27;;;;;;;10.95;4.88;;;;;;;10.27;82.65;101246.84;4978961;28;20153;-72
2021/05/25 07:23:55;;;;;;;14.15;5.35;;;;;;;10.37;82.92;101250.19;4977620;28;20062;-74
2021/05/25 07:26:23;;;;;;;13.30;4.45;;;;;;;10.29;83.13;101250.34;4975099;28;20062;-72
2021/05/25 07:28:50;;;;;;;12.65;5.03;;;;;;;10.44;82.11;101254.47;4973963;28;20058;-72
2021/05/25 07:31:18;;;;;;;15.18;4.80;;;;;;;10.23;79.88;101266.50;4974077;28;20073;-73
2021/05/25 07:33:46;;;;;;;11.20;5.35;;;;;;;10.21;81.01;101271.84;4973877;28;20066;-73
2021/05/25 07:36:13;;;;;;;10.93;4.95;;;;;;;10.39;80.75;101264.38;4972572;28;20073;-72
2021/05/25 07:38:42;;;;;;;11.95;5.47;;;;;;;10.64;78.64;101275.28;4975395;28;20062;-72
2021/05/25 07:41:09;;;;;;;10.70;5.40;;;;;;;11.08;79.28;101275.06;4973166;28;20243;-73
2021/05/25 07:43:36;;;;;;;15.68;6.55;;;;;;;11.53;78.97;101272.03;4973177;28;20073;-72
2021/05/25 07:46:04;;;;;;;14.63;5.40;;;;;;;11.55;77.91;101273.72;4972159;28;20066;-72
2021/05/25 07:48:34;;;;;;;13.25;5.63;;;;;;;11.46;76.64;101282.00;4972274;28;20070;-73
2021/05/25 07:51:02;;;;;;;12.02;4.93;;;;;;;11.46;76.44;101287.34;4972226;28;20066;-73
2021/05/25 07:53:30;;;;;;;14.20;5.45;;;;;;;11.58;77.73;101288.81;4973114;28;20059;-74
2021/05/25 07:55:58;;;;;;;12.70;5.88;;;;;;;11.69;76.78;101275.09;4971355;28;20080;-74
2021/05/25 07:58:26;;;;;;;11.18;4.97;;;;;;;11.63;75.30;101294.88;4976806;28;20065;-73
2021/05/25 08:00:54;;;;;;;19.10;5.95;;;;;;;11.23;76.47;101298.66;4971343;28;20098;-74
2021/05/25 08:03:22;;;;;;;15.32;6.20;;;;;;;11.07;76.50;101290.22;4972359;28;20071;-73
2021/05/25 08:05:49;;;;;;;16.80;6.13;;;;;;;11.12;76.69;101301.66;4970429;28;20456;-73
2021/05/25 08:08:17;;;;;;;18.10;6.35;;;;;;;11.57;75.73;101305.75;5004056;28;20058;-74
2021/05/25 08:10:44;;;;;;;20.88;6.68;;;;;;;11.43;76.15;101310.63;4971369;28;20081;-73
2021/05/25 08:13:12;;;;;;;13.88;5.47;;;;;;;11.21;77.43;101314.75;4973548;28;20454;-72
2021/05/25 08:15:41;;;;;;;14.30;6.28;;;;;;;11.18;76.91;101317.50;4971733;28;20359;-72
2021/05/25 08:18:15;;;;;;;15.07;6.13;;;;;;;11.26;77.30;101325.31;4975974;28;20059;-72
2021/05/25 08:20:44;;;;;;;14.85;7.38;;;;;;;11.48;77.13;101328.28;4970176;28;20070;-72
2021/05/25 08:23:27;;;;;;;14.82;6.60;;;;;;;11.68;74.65;101329.47;4971174;28;20456;-73
2021/05/25 08:25:54;;;;;;;18.88;6.45;;;;;;;11.77;76.09;101334.56;4970285;28;20065;-72
2021/05/25 08:28:23;;;;;;;17.83;7.07;;;;;;;11.54;75.26;101335.22;4968996;28;20523;-73
2021/05/25 08:30:51;;;;;;;13.95;6.03;;;;;;;11.85;75.79;101343.25;4968259;28;20086;-72
2021/05/25 08:33:20;;;;;;;13.50;5.88;;;;;;;11.54;75.01;101345.91;4996736;28;20093;-73
2021/05/25 08:35:48;;;;;;;16.50;5.93;;;;;;;12.07;74.19;101343.53;4974644;28;20353;-71
2021/05/25 08:38:19;;;;;;;13.75;5.43;;;;;;;11.88;73.44;101348.50;4968216;28;20059;-71
2021/05/25 08:40:47;;;;;;;13.52;4.97;;;;;;;12.06;72.86;101348.91;4972803;28;20065;-71
2021/05/25 08:43:15;;;;;;;13.88;5.05;;;;;;;12.25;73.90;101366.16;4993711;28;20333;-71
2021/05/25 08:45:43;;;;;;;13.90;4.80;;;;;;;12.04;72.34;101367.69;4974155;28;20342;-71
2021/05/25 08:48:11;;;;;;;12.60;4.25;;;;;;;12.08;72.03;101366.66;4969154;28;20066;-72
2021/05/25 08:50:51;;;;;;;16.95;5.28;;;;;;;12.32;72.33;101370.38;4969530;28;20128;-71
2021/05/25 08:53:18;;;;;;;14.02;4.25;;;;;;;12.72;71.96;101376.31;4965870;28;20118;-72
2021/05/25 08:55:48;;;;;;;19.85;4.20;;;;;;;13.16;68.21;101373.03;4967190;28;20058;-72
2021/05/25 08:58:16;;;;;;;11.65;4.13;;;;;;;13.13;68.81;101374.03;4970712;28;20516;-73
2021/05/25 09:00:44;;;;;;;11.38;4.05;;;;;;;12.88;69.40;101382.88;4971713;28;20081;-72
2021/05/25 09:03:15;;;;;;;10.07;3.10;;;;;;;13.12;68.06;101390.16;4976746;28;20068;-72
2021/05/25 09:05:49;;;;;;;12.38;3.53;;;;;;;13.45;65.93;101394.41;4971921;28;20485;-73
2021/05/25 09:08:16;;;;;;;11.95;3.88;;;;;;;12.80;66.92;101397.44;4972831;28;20069;-73
2021/05/25 09:10:46;;;;;;;10.85;3.70;;;;;;;13.41;67.13;101395.41;4968784;28;20082;-72
2021/05/25 09:13:16;;;;;;;10.43;3.33;;;;;;;13.05;65.79;101398.38;4973979;28;20074;-73
2021/05/25 09:15:46;;;;;;;9.27;4.13;;;;;;;13.02;66.70;101395.81;4964910;28;20070;-73
2021/05/25 09:18:15;;;;;;;10.63;3.40;;;;;;;12.56;66.73;101412.50;4974761;28;20237;-72
2021/05/25 09:20:48;;;;;;;9.35;3.53;;;;;;;12.92;66.56;101402.41;4967245;28;20073;-73
2021/05/25 09:23:17;;;;;;;10.70;3.83;;;;;;;14.02;63.23;101392.31;4975567;28;20113;-73
2021/05/25 09:25:54;;;;;;;11.23;4.40;;;;;;;14.27;62.77;101396.75;4970257;28;20062;-72
2021/05/25 09:28:21;;;;;;;12.60;4.35;;;;;;;13.94;62.70;101398.91;4971338;28;20454;-73
2021/05/25 09:30:51;;;;;;;11.23;3.70;;;;;;;14.25;61.97;101395.03;4972478;28;20062;-73
2021/05/25 09:33:22;;;;;;;10.65;3.63;;;;;;;13.85;62.26;101393.88;4971311;28;20473;-73
2021/05/25 09:35:50;;;;;;;9.70;3.30;;;;;;;14.22;62.83;101397.84;4968621;28;20121;-72
2021/05/25 09:38:19;;;;;;;12.05;3.60;;;;;;;14.13;63.70;101391.91;4973626;28;20088;-73
2021/05/25 09:40:48;;;;;;;12.82;3.47;;;;;;;14.13;62.68;101399.06;4970829;28;20062;-73
2021/05/25 09:43:18;;;;;;;6.45;3.10;;;;;;;13.61;61.58;101401.88;4972715;28;20121;-72
2021/05/25 09:46:09;;;;;;;12.90;3.63;;;;;;;13.09;63.43;101417.91;4973457;28;20064;-73
2021/05/25 09:48:53;;;;;;;12.52;4.00;;;;;;;13.51;63.81;101408.50;4967000;28;20067;-73
2021/05/25 09:51:21;;;;;;;7.75;3.67;;;;;;;13.15;62.79;101403.47;4983675;28;20058;-73
2021/05/25 09:53:54;;;;;;;9.00;3.22;;;;;;;13.68;61.57;101405.22;4973955;28;20066;-72
2021/05/25 09:56:22;;;;;;;8.07;3.20;;;;;;;12.94;63.29;101410.38;4979976;28;20062;-72
2021/05/25 09:58:49;;;;;;;12.18;3.03;;;;;;;13.03;63.95;101416.31;4971696;28;20082;-73
2021/05/25 10:01:18;;;;;;;10.80;3.40;;;;;;;12.97;64.09;101419.19;4981761;28;20058;-73
2021/05/25 10:03:47;;;;;;;9.85;3.55;;;;;;;13.10;63.43;101417.00;4971252;28;20058;-73
2021/05/25 10:06:15;;;;;;;12.20;3.65;;;;;;;13.82;61.69;101414.53;4978078;28;20077;-73
2021/05/25 10:08:44;;;;;;;8.95;3.28;;;;;;;14.00;62.37;101415.66;4972862;28;20469;-73
2021/05/25 10:11:16;;;;;;;6.75;3.13;;;;;;;13.73;61.60;101398.75;4978191;28;20215;-73
2021/05/25 10:13:44;;;;;;;7.90;2.70;;;;;;;14.34;59.10;101414.38;4974770;28;20136;-73
2021/05/25 10:16:13;;;;;;;6.85;2.95;;;;;;;14.34;60.09;101409.00;4978793;28;20054;-72
2021/05/25 10:19:00;;;;;;;10.82;3.40;;;;;;;14.13;61.29;101413.38;4973550;28;20532;-73
2021/05/25 10:21:27;;;;;;;7.65;2.75;;;;;;;14.07;62.24;101413.59;4977514;28;20058;-73
2021/05/25 10:24:00;;;;;;;9.57;2.97;;;;;;;14.35;61.26;101415.22;4975288;28;20445;-73
2021/05/25 10:26:29;;;;;;;7.20;3.28;;;;;;;14.08;60.19;101422.53;4977820;28;20090;-72
2021/05/25 10:28:56;;;;;;;9.45;2.80;;;;;;;13.88;60.08;101424.16;4972359;28;20063;-73
2021/05/25 10:31:26;;;;;;;9.63;3.22;;;;;;;13.89;61.07;101427.69;4978568;28;20066;-73
2021/05/25 10:34:17;;;;;;;6.43;2.90;;;;;;;14.03;59.97;101425.41;4972309;28;20066;-73
2021/05/25 10:36:45;;;;;;;6.55;2.58;;;;;;;13.99;58.52;101418.38;4976876;28;20069;-73
2021/05/25 10:39:35;;;;;;;9.20;2.58;;;;;;;14.52;59.69;101419.94;4976562;28;20070;-73
2021/05/25 10:42:25;;;;;;;7.13;2.80;;;;;;;14.52;56.86;101415.47;4976909;28;20058;-73
2021/05/25 10:44:54;;;;;;;7.35;2.45;;;;;;;14.47;56.77;101412.09;4973824;28;20066;-73
2021/05/25 10:47:25;;;;;;;6.85;2.20;;;;;;;13.88;57.48;101424.16;4971835;28;20065;-75
2021/05/25 10:49:55;;;;;;;6.55;2.10;;;;;;;14.33;57.74;101430.53;4973496;28;20548;-73
2021/05/25 10:52:23;;;;;;;7.82;2.25;;;;;;;14.06;56.02;101425.25;4975460;28;20061;-72
2021/05/25 10:54:53;;;;;;;8.15;2.42;;;;;;;13.65;57.46;101446.41;4979087;28;20069;-73
2021/05/25 10:57:37;;;;;;;4.75;1.80;;;;;;;13.12;56.87;101433.03;4976029;28;20065;-73
2021/05/25 11:00:11;;;;;;;4.93;2.55;;;;;;;13.55;58.08;101445.88;4977220;28;20287;-72
2021/05/25 11:02:53;;;;;;;5.32;2.15;;;;;;;13.28;59.02;101458.41;4974829;28;20150;-73
2021/05/25 11:05:44;;;;;;;8.48;2.20;;;;;;;12.70;58.94;101445.06;4976921;28;20066;-72
2021/05/25 11:08:28;;;;;;;3.97;1.75;;;;;;;12.42;60.46;101461.09;4978690;28;20068;-74
2021/05/25 11:11:05;;;;;;;4.90;1.80;;;;;;;12.68;60.23;101455.84;4990915;28;20430;-74
2021/05/25 11:13:37;;;;;;;4.95;2.10;;;;;;;12.49;60.76;101457.31;4978458;28;20437;-74
2021/05/25 11:16:12;;;;;;;5.53;2.00;;;;;;;12.45;61.54;101467.25;4974204;28;20055;-73
2021/05/25 11:18:44;;;;;;;7.47;2.17;;;;;;;12.78;61.07;101464.44;4974518;28;20149;-72
2021/05/25 11:24:53;;;;;;;5.97;2.30;;;;;;;12.55;62.06;101474.97;4975938;28;20054;-72
2021/05/25 11:27:29;;;;;;;4.10;2.00;;;;;;;12.63;61.22;101476.53;4970272;28;20516;-72
2021/05/25 11:29:59;;;;;;;6.15;2.83;;;;;;;12.52;62.86;101473.28;4974137;28;20502;-73
2021/05/25 11:32:28;;;;;;;5.30;2.00;;;;;;;12.33;64.42;101475.66;4974036;28;20223;-72
2021/05/25 11:34:58;;;;;;;6.70;2.33;;;;;;;12.10;64.68;101477.16;4971543;28;20476;-72